Terminal Aerodrome Forecast
Issued by NWS Charleston, WV

Current Version | Previous Version | Text Only | Print | Product List | Glossary Off
Versions: 1 2 3 4 5 6 7 8 9 10 11 12 13 14 15 16 17 18 19 20 21 22 23

000
FTUS41 KRLX 241100
TAFEKN
TAF
KEKN 241120Z 2412/2512 14005KT P6SM OVC080
     FM241500 17007KT 6SM SHRA BR BKN045
     FM241800 18009G15KT P6SM SHRA BKN040
     FM250000 19010G20KT 3SM SHRA BR VCTS OVC020CB
     FM250200 23015G30KT 4SM SHRA BR VCTS OVC025CB
     FM250500 26012G23KT 5SM -SHRA BR BKN030
     FM250700 26009G25KT 5SM BR BKN030=

USA.gov is the U.S. government's official web portal to all federal, state and local government web resources and services.